Time;durP1;ratioP1;P1;durP2;ratioP2;P2;SDS_P1;SDS_P2;PMS_P1;PMS_P2;Temp;Humidity;BMP_temperature;BMP_pressure;BME280_temperature;BME280_humidity;BME280_pressure;Samples;Min_cycle;Max_cycle;Signal;HPM_P1;HPM_P2
2023/07/20 00:00:34;;;;;;;10.07;3.28;;;;;;;19.13;69.65;101143.22;5116343;28;20559;-59
2023/07/20 00:03:18;;;;;;;11.68;3.40;;;;;;;19.23;69.26;101151.88;5116882;28;20043;-59
2023/07/20 00:05:46;;;;;;;10.05;3.20;;;;;;;19.11;69.66;101151.19;5117071;28;20126;-60
2023/07/20 00:08:14;;;;;;;9.48;3.20;;;;;;;18.92;70.45;101154.66;5115397;28;20063;-60
2023/07/20 00:10:41;;;;;;;7.43;2.67;;;;;;;19.06;70.39;101149.47;5117405;28;20043;-60
2023/07/20 00:13:09;;;;;;;10.73;3.55;;;;;;;19.49;68.47;101151.38;5116693;28;20051;-61
2023/07/20 00:15:37;;;;;;;10.57;3.28;;;;;;;19.35;69.12;101156.63;5116947;28;20076;-60
2023/07/20 00:18:05;;;;;;;7.63;3.17;;;;;;;19.45;68.77;101151.28;5116010;28;20048;-60
2023/07/20 00:20:32;;;;;;;8.68;3.35;;;;;;;19.33;69.50;101153.38;5116337;28;20054;-60
2023/07/20 00:23:00;;;;;;;8.00;2.83;;;;;;;19.56;68.82;101157.91;5116857;28;20056;-61
2023/07/20 00:25:27;;;;;;;9.35;3.28;;;;;;;19.22;69.52;101158.66;5094525;28;20052;-60
2023/07/20 00:27:54;;;;;;;7.00;2.67;;;;;;;19.20;70.20;101157.38;5094871;28;20063;-60
2023/07/20 00:30:22;;;;;;;7.70;3.10;;;;;;;19.30;69.89;101157.69;5115850;28;20043;-61
2023/07/20 00:32:49;;;;;;;8.80;2.88;;;;;;;19.33;69.52;101156.97;5115827;28;20048;-60
2023/07/20 00:35:17;;;;;;;7.57;3.05;;;;;;;19.25;69.80;101151.56;5116422;28;20046;-61
2023/07/20 00:37:44;;;;;;;9.50;3.15;;;;;;;19.38;69.47;101151.13;5116458;28;20051;-60
2023/07/20 00:40:11;;;;;;;11.93;3.55;;;;;;;19.45;69.45;101156.06;5097648;28;20050;-59
2023/07/20 00:42:39;;;;;;;11.10;2.97;;;;;;;19.67;68.08;101150.59;5097661;28;20058;-61
2023/07/20 00:45:07;;;;;;;7.80;3.22;;;;;;;19.50;68.50;101151.00;5097920;28;20693;-59
2023/07/20 00:47:34;;;;;;;11.00;3.35;;;;;;;19.45;68.66;101153.25;5097628;28;20051;-60
2023/07/20 00:50:03;;;;;;;9.68;3.13;;;;;;;19.32;69.48;101157.34;5098115;28;20486;-61
2023/07/20 00:52:32;;;;;;;10.07;2.80;;;;;;;19.08;70.78;101156.31;5081832;28;20051;-60
2023/07/20 00:55:01;;;;;;;8.52;3.75;;;;;;;18.91;71.41;101156.66;5071208;28;20078;-60
2023/07/20 00:57:29;;;;;;;;;;;;;;;18.58;73.21;101152.56;5095476;28;20048;-60
2023/07/20 00:59:57;;;;;;;9.60;2.80;;;;;;;18.86;72.90;101153.31;5111731;28;19926;-61
2023/07/20 01:02:24;;;;;;;13.75;3.50;;;;;;;18.94;71.94;101147.56;5079970;28;20051;-61
2023/07/20 01:04:52;;;;;;;7.63;3.20;;;;;;;18.99;71.63;101149.28;5114904;28;20047;-60
2023/07/20 01:07:24;;;;;;;11.85;3.15;;;;;;;19.32;71.07;101149.75;5096942;28;20542;-61
2023/07/20 01:10:02;;;;;;;9.15;3.55;;;;;;;19.48;69.88;101150.56;5113608;27;20043;-61
2023/07/20 01:12:40;;;;;;;10.30;2.97;;;;;;;19.49;69.39;101145.78;5098683;28;20396;-61
2023/07/20 01:15:09;;;;;;;10.98;3.00;;;;;;;19.48;69.77;101149.72;5097592;28;20051;-61
2023/07/20 01:17:36;;;;;;;8.98;3.00;;;;;;;19.65;69.34;101138.97;5103427;28;20047;-61
2023/07/20 01:20:07;;;;;;;10.77;3.42;;;;;;;19.77;68.68;101150.03;5080064;28;20044;-61
2023/07/20 01:22:42;;;;;;;9.77;3.13;;;;;;;19.80;68.23;101143.75;5097090;28;20085;-60
2023/07/20 01:25:39;;;;;;;13.63;3.35;;;;;;;19.74;67.75;101141.56;5084555;28;20047;-60
2023/07/20 01:28:19;;;;;;;8.80;3.17;;;;;;;19.60;68.68;101133.66;5108163;28;20529;-61
2023/07/20 01:30:59;;;;;;;8.93;3.40;;;;;;;19.69;68.40;101137.09;5115343;28;20050;-60
2023/07/20 01:33:27;;;;;;;6.65;2.75;;;;;;;19.66;68.34;101132.22;5114121;28;20059;-61
2023/07/20 01:35:56;;;;;;;15.35;3.03;;;;;;;19.46;68.99;101135.31;5115050;28;20056;-60
2023/07/20 01:38:24;;;;;;;10.05;3.30;;;;;;;19.34;69.69;101135.41;5115275;28;20054;-60
2023/07/20 01:40:52;;;;;;;8.43;3.00;;;;;;;19.42;69.59;101128.84;5097124;28;20047;-60
2023/07/20 01:43:20;;;;;;;11.70;3.60;;;;;;;19.41;69.42;101136.41;5097169;28;20066;-60
2023/07/20 01:45:47;;;;;;;9.82;3.33;;;;;;;19.59;69.21;101132.06;5096899;28;20171;-60
2023/07/20 01:48:15;;;;;;;10.55;3.20;;;;;;;19.68;68.69;101132.66;5114660;28;20044;-62
2023/07/20 01:50:42;;;;;;;8.65;2.88;;;;;;;19.67;68.54;101127.44;5096961;28;20051;-60
2023/07/20 01:53:10;;;;;;;11.20;2.85;;;;;;;19.70;68.60;101130.31;5115210;28;20039;-61
2023/07/20 01:55:37;;;;;;;11.55;3.00;;;;;;;19.43;69.12;101122.91;5114692;28;20423;-61
2023/07/20 01:58:05;;;;;;;10.93;3.00;;;;;;;19.40;69.62;101123.63;5096672;28;20055;-61
2023/07/20 02:00:33;;;;;;;10.13;3.35;;;;;;;19.52;69.10;101123.50;5095902;28;20048;-61
2023/07/20 02:03:00;;;;;;;10.80;3.28;;;;;;;19.64;68.67;101125.38;5110732;28;20047;-61
2023/07/20 02:05:28;;;;;;;11.35;3.35;;;;;;;19.73;68.09;101118.41;5114302;28;20055;-60
2023/07/20 02:07:55;;;;;;;9.68;3.28;;;;;;;19.87;67.40;101115.94;5095606;28;20061;-60
2023/07/20 02:10:23;;;;;;;8.68;3.28;;;;;;;19.74;67.46;101117.22;5092150;28;20044;-60
2023/07/20 02:12:50;;;;;;;10.40;2.90;;;;;;;19.88;67.67;101117.53;5112708;28;20074;-60
2023/07/20 02:15:18;;;;;;;10.52;3.65;;;;;;;19.82;67.12;101119.00;5095826;28;20051;-60
2023/07/20 02:17:46;;;;;;;9.82;3.45;;;;;;;19.70;67.69;101112.75;5095842;28;20055;-60
2023/07/20 02:20:13;;;;;;;11.48;3.40;;;;;;;19.67;68.23;101110.66;5079888;28;20048;-61
2023/07/20 02:22:41;;;;;;;11.73;3.40;;;;;;;19.46;68.60;101116.56;5114116;28;20055;-60
2023/07/20 02:25:09;;;;;;;10.60;3.55;;;;;;;19.38;69.20;101111.19;5096129;28;20078;-59
2023/07/20 02:27:37;;;;;;;10.15;3.40;;;;;;;19.42;68.95;101110.06;5095886;28;20051;-58
2023/07/20 02:30:05;;;;;;;9.65;3.53;;;;;;;19.62;68.87;101106.19;5096099;28;20501;-60
2023/07/20 02:32:33;;;;;;;10.30;3.85;;;;;;;19.36;69.10;101122.72;5095225;28;20059;-61
2023/07/20 02:35:03;;;;;;;13.10;3.88;;;;;;;19.58;68.68;101115.66;5114504;28;20066;-60
2023/07/20 02:37:31;;;;;;;11.05;3.40;;;;;;;19.39;69.21;101110.00;5113817;28;20055;-60
2023/07/20 02:39:58;;;;;;;7.82;3.25;;;;;;;19.53;68.96;101122.31;5114122;28;20059;-60
2023/07/20 02:42:25;;;;;;;11.82;3.40;;;;;;;19.65;68.46;101122.22;5114066;28;20166;-60
2023/07/20 02:44:53;;;;;;;11.15;3.45;;;;;;;19.61;68.69;101115.75;5114135;28;20052;-59
2023/07/20 02:47:20;;;;;;;12.70;3.72;;;;;;;19.70;67.83;101115.53;5078219;28;20059;-60
2023/07/20 02:49:48;;;;;;;9.95;3.63;;;;;;;19.40;69.54;101123.63;5114130;28;20047;-59
2023/07/20 02:52:15;;;;;;;14.18;3.63;;;;;;;19.19;70.31;101125.03;5113567;28;20526;-63
2023/07/20 02:54:43;;;;;;;11.45;3.75;;;;;;;18.99;71.32;101124.97;5098020;28;20162;-64
2023/07/20 02:57:10;;;;;;;9.85;3.42;;;;;;;19.14;71.35;101116.94;5113858;28;20054;-64
2023/07/20 02:59:37;;;;;;;8.68;3.40;;;;;;;19.49;69.78;101118.63;5086407;28;20070;-64
2023/07/20 03:02:05;;;;;;;9.57;3.65;;;;;;;19.34;69.73;101116.69;5085077;28;20044;-64
2023/07/20 03:04:32;;;;;;;8.52;3.47;;;;;;;19.30;70.30;101112.97;5098775;28;20043;-64
2023/07/20 03:06:59;;;;;;;9.73;3.60;;;;;;;19.15;70.73;101116.59;5113968;28;20050;-64
2023/07/20 03:09:27;;;;;;;9.38;3.63;;;;;;;19.27;70.69;101110.91;5112234;28;20047;-60
2023/07/20 03:11:56;;;;;;;10.13;3.53;;;;;;;19.16;71.14;101114.59;5095695;28;20195;-60
2023/07/20 03:14:23;;;;;;;9.25;3.50;;;;;;;19.12;71.09;101106.16;5095772;28;20047;-60
2023/07/20 03:16:51;;;;;;;8.82;3.45;;;;;;;19.46;69.61;101115.75;5113514;28;20048;-60
2023/07/20 03:19:18;;;;;;;8.98;3.22;;;;;;;19.17;70.36;101113.44;5116033;28;20047;-61
2023/07/20 03:21:46;;;;;;;10.07;3.55;;;;;;;19.17;70.87;101117.03;5116425;28;20040;-59
2023/07/20 03:24:13;;;;;;;12.85;3.95;;;;;;;18.85;71.96;101121.81;5118158;28;20055;-63
2023/07/20 03:26:41;;;;;;;13.48;3.88;;;;;;;19.19;70.88;101123.06;5099781;28;20074;-64
2023/07/20 03:29:08;;;;;;;14.82;3.65;;;;;;;19.10;70.79;101119.66;5099656;28;20046;-63
2023/07/20 03:31:35;;;;;;;10.43;3.63;;;;;;;18.98;71.20;101120.56;5081504;28;20048;-64
2023/07/20 03:34:05;;;;;;;10.98;3.83;;;;;;;19.01;71.78;101110.63;5099598;28;20051;-60
2023/07/20 03:36:32;;;;;;;9.57;3.60;;;;;;;18.78;72.05;101121.63;5099960;28;20487;-60
2023/07/20 03:38:59;;;;;;;10.13;3.53;;;;;;;18.66;72.97;101124.47;5117464;28;20048;-63
2023/07/20 03:41:27;;;;;;;8.35;3.28;;;;;;;18.84;72.23;101124.97;5081875;28;20060;-60
2023/07/20 03:43:54;;;;;;;11.40;3.65;;;;;;;18.78;72.33;101135.56;5099304;28;20056;-63
2023/07/20 03:46:22;;;;;;;9.30;3.70;;;;;;;18.66;72.89;101118.91;5117622;28;20051;-59
2023/07/20 03:48:50;;;;;;;10.00;3.55;;;;;;;18.45;74.23;101120.28;5116001;28;20054;-59
2023/07/20 03:51:17;;;;;;;10.27;3.88;;;;;;;18.69;73.31;101126.56;5116200;28;20050;-63
2023/07/20 03:53:45;;;;;;;12.43;4.07;;;;;;;18.68;73.24;101130.53;5098940;28;20058;-64
2023/07/20 03:56:12;;;;;;;12.63;4.03;;;;;;;18.64;72.89;101124.03;5117373;28;20054;-64
2023/07/20 03:58:39;;;;;;;11.73;3.53;;;;;;;18.72;73.33;101122.25;5117587;28;20515;-61
2023/07/20 04:01:07;;;;;;;11.38;3.95;;;;;;;18.59;73.41;101121.50;5116864;28;20062;-64
2023/07/20 04:03:35;;;;;;;8.43;3.42;;;;;;;18.72;72.83;101122.25;5117146;28;20052;-60
2023/07/20 04:06:03;;;;;;;9.32;3.65;;;;;;;18.79;72.65;101120.44;5117056;28;20050;-60
2023/07/20 04:08:31;;;;;;;12.32;3.65;;;;;;;18.87;72.81;101118.66;5115686;28;20051;-60
2023/07/20 04:11:01;;;;;;;11.18;3.85;;;;;;;18.91;72.47;101120.38;5117061;28;20042;-61
2023/07/20 04:13:28;;;;;;;14.68;4.35;;;;;;;18.67;73.67;101117.72;5116249;28;20498;-60
2023/07/20 04:15:56;;;;;;;12.20;4.45;;;;;;;18.62;73.83;101111.63;5116524;28;20056;-61
2023/07/20 04:18:23;;;;;;;10.73;3.65;;;;;;;18.79;73.47;101111.28;5082870;28;20055;-60
2023/07/20 04:20:50;;;;;;;13.00;4.13;;;;;;;19.02;72.87;101104.69;5097068;28;20047;-61
2023/07/20 04:23:18;;;;;;;14.25;4.28;;;;;;;18.86;73.78;101100.28;5095291;28;20056;-61
2023/07/20 04:25:45;;;;;;;12.73;4.00;;;;;;;18.90;73.73;101101.16;5091013;28;20106;-61
2023/07/20 04:28:13;;;;;;;10.18;4.22;;;;;;;18.76;74.42;101111.97;5114629;28;20177;-59
2023/07/20 04:30:48;;;;;;;12.52;4.07;;;;;;;18.83;74.01;101109.38;5111517;28;20506;-60
2023/07/20 04:33:17;;;;;;;;;;;;;;;18.40;76.63;101103.78;5077087;28;20051;-59
2023/07/20 04:35:47;;;;;;;15.05;4.82;;;;;;;18.26;77.57;101112.56;5078238;28;19927;-59
2023/07/20 04:38:17;;;;;;;10.50;4.20;;;;;;;18.37;77.32;101104.50;5094959;28;20062;-64
2023/07/20 04:40:49;;;;;;;11.40;4.45;;;;;;;18.57;76.25;101098.72;5078304;28;20040;-60
2023/07/20 04:43:17;;;;;;;11.73;4.10;;;;;;;18.69;75.93;101106.22;5077089;28;20059;-59
2023/07/20 04:45:44;;;;;;;16.25;4.45;;;;;;;18.67;76.02;101106.56;5096537;28;20051;-60
2023/07/20 04:48:15;;;;;;;9.85;4.18;;;;;;;18.71;75.76;101115.03;5081444;28;20043;-60
2023/07/20 04:50:49;;;;;;;10.00;4.05;;;;;;;18.67;75.66;101105.78;5115430;28;20058;-59
2023/07/20 04:53:16;;;;;;;14.68;4.97;;;;;;;18.38;77.01;101106.94;5114839;28;20549;-63
2023/07/20 04:55:51;;;;;;;10.85;4.47;;;;;;;18.52;76.83;101109.31;5113865;28;20050;-63
2023/07/20 04:58:21;;;;;;;15.20;4.30;;;;;;;18.82;76.16;101113.34;5097257;28;20051;-64
2023/07/20 05:00:50;;;;;;;16.70;4.80;;;;;;;18.44;76.44;101111.13;5098148;28;20046;-64
2023/07/20 05:03:17;;;;;;;10.23;4.13;;;;;;;18.50;76.97;101108.88;5114577;28;20039;-64
2023/07/20 05:05:47;;;;;;;12.73;4.70;;;;;;;18.67;76.32;101123.31;5103028;28;20416;-64
2023/07/20 05:08:16;;;;;;;13.50;4.47;;;;;;;18.67;75.62;101106.56;5096720;28;20640;-63
2023/07/20 05:10:44;;;;;;;10.38;4.00;;;;;;;18.73;75.86;101118.28;5097352;28;20059;-64
2023/07/20 05:13:11;;;;;;;10.98;3.78;;;;;;;18.74;75.02;101119.91;5105345;27;20044;-64
2023/07/20 05:15:39;;;;;;;13.98;4.20;;;;;;;18.77;75.33;101122.78;5097198;28;20051;-64
2023/07/20 05:18:10;;;;;;;13.18;3.97;;;;;;;18.94;74.68;101119.66;5097152;28;20039;-65
2023/07/20 05:20:38;;;;;;;10.50;3.42;;;;;;;19.04;74.09;101124.69;5114088;28;20048;-65
2023/07/20 05:23:05;;;;;;;11.60;3.67;;;;;;;19.10;74.19;101122.44;5115876;28;20040;-64
2023/07/20 05:25:33;;;;;;;12.48;3.88;;;;;;;19.08;73.40;101119.19;5097484;28;20052;-64
2023/07/20 05:28:00;;;;;;;13.05;3.85;;;;;;;19.14;73.43;101122.53;5114952;28;20043;-64
2023/07/20 05:30:29;;;;;;;10.65;3.80;;;;;;;19.16;72.44;101131.38;5093489;28;20048;-64
2023/07/20 05:32:56;;;;;;;17.17;3.88;;;;;;;19.00;73.55;101129.38;5111966;28;20043;-63
2023/07/20 05:35:24;;;;;;;11.32;3.40;;;;;;;18.87;73.64;101136.22;5115716;28;20051;-65
2023/07/20 05:37:51;;;;;;;11.35;3.55;;;;;;;18.97;74.20;101127.31;5077130;28;20056;-64
2023/07/20 05:40:19;;;;;;;11.45;3.72;;;;;;;18.51;75.10;101132.81;5076761;28;20508;-64
2023/07/20 05:42:51;;;;;;;14.70;3.97;;;;;;;18.48;76.08;101130.75;5108854;28;20047;-63
2023/07/20 05:45:20;;;;;;;10.07;3.90;;;;;;;18.77;75.89;101130.34;5060538;28;20055;-65
2023/07/20 05:47:47;;;;;;;13.70;3.78;;;;;;;19.04;74.32;101126.66;5074399;28;20055;-64
2023/07/20 05:50:14;;;;;;;9.57;3.92;;;;;;;18.94;73.87;101130.81;5115572;27;20055;-64
2023/07/20 05:52:42;;;;;;;10.95;3.95;;;;;;;19.11;73.76;101121.25;5115997;27;20047;-60
2023/07/20 05:55:09;;;;;;;9.85;3.78;;;;;;;19.51;72.31;101115.50;5113710;28;20043;-64
2023/07/20 05:57:41;;;;;;;10.25;4.43;;;;;;;19.11;71.59;101120.47;5084992;28;20491;-64
2023/07/20 06:00:10;;;;;;;12.95;4.85;;;;;;;18.93;73.80;101114.44;5086466;28;20040;-63
2023/07/20 06:02:42;;;;;;;10.75;3.92;;;;;;;18.51;75.15;101122.50;5128570;27;20050;-59
2023/07/20 06:05:10;;;;;;;9.77;3.70;;;;;;;18.32;76.59;101119.53;5116847;27;20430;-60
2023/07/20 06:07:37;;;;;;;13.25;4.00;;;;;;;18.14;77.32;101129.34;5119456;27;20043;-60
2023/07/20 06:10:06;;;;;;;12.05;3.83;;;;;;;18.11;78.15;101132.03;5115234;27;20051;-63
2023/07/20 06:12:33;;;;;;;10.60;4.85;;;;;;;17.95;79.21;101120.81;5099517;27;20077;-64
2023/07/20 06:15:05;;;;;;;11.02;3.70;;;;;;;18.53;77.74;101117.34;5096208;28;20051;-65
2023/07/20 06:17:32;;;;;;;10.95;3.80;;;;;;;18.79;75.66;101112.06;5114712;28;20051;-59
2023/07/20 06:20:00;;;;;;;12.10;3.55;;;;;;;18.95;74.66;101112.88;5114565;28;20055;-59
2023/07/20 06:22:27;;;;;;;9.63;4.00;;;;;;;18.83;75.24;101117.75;5096273;28;20056;-59
2023/07/20 06:24:55;;;;;;;11.95;4.38;;;;;;;18.88;75.08;101109.13;5107603;28;20513;-60
2023/07/20 06:27:22;;;;;;;17.17;4.45;;;;;;;19.07;74.55;101117.59;5108138;28;20055;-61
2023/07/20 06:29:50;;;;;;;8.63;3.45;;;;;;;19.18;74.75;101115.84;5113374;27;20059;-61
2023/07/20 06:32:17;;;;;;;12.63;4.35;;;;;;;19.58;73.08;101118.47;5086227;28;20036;-61
2023/07/20 06:34:44;;;;;;;13.45;3.95;;;;;;;19.79;72.45;101110.53;5088464;28;20043;-61
2023/07/20 06:37:12;;;;;;;13.63;4.68;;;;;;;19.93;72.83;101099.66;5105038;27;20070;-61
2023/07/20 06:39:39;;;;;;;17.23;4.13;;;;;;;19.95;72.90;101106.50;5106121;28;20055;-60
2023/07/20 06:42:09;;;;;;;;;;;;;;;19.99;71.18;101104.63;5107157;28;20702;-60
2023/07/20 06:44:37;;;;;;;18.60;8.02;;;;;;;20.02;70.73;101103.06;5108687;28;19920;-61
2023/07/20 06:47:04;;;;;;;9.43;4.05;;;;;;;20.01;70.36;101109.84;5107433;28;20041;-61
2023/07/20 06:49:31;;;;;;;13.18;4.10;;;;;;;20.01;71.31;101116.22;5105913;28;20044;-58
2023/07/20 06:51:59;;;;;;;20.95;4.20;;;;;;;20.10;69.95;101111.22;5103113;28;20054;-60
2023/07/20 06:54:26;;;;;;;12.88;4.00;;;;;;;20.09;68.94;101112.41;5104457;27;20055;-60
2023/07/20 06:56:53;;;;;;;10.23;4.30;;;;;;;19.98;69.54;101113.34;5105751;28;20111;-61
2023/07/20 06:59:24;;;;;;;13.07;4.38;;;;;;;20.11;70.26;101106.44;5102356;28;20062;-63
2023/07/20 07:01:52;;;;;;;11.80;4.13;;;;;;;19.80;70.45;101107.41;5088843;28;20059;-63
2023/07/20 07:04:19;;;;;;;14.40;3.95;;;;;;;19.91;71.24;101105.63;5087823;28;20048;-65
2023/07/20 07:06:47;;;;;;;13.25;5.00;;;;;;;20.05;70.23;101110.69;5106095;28;20536;-63
2023/07/20 07:09:15;;;;;;;10.55;3.85;;;;;;;20.03;70.22;101108.28;5100471;28;20040;-60
2023/07/20 07:11:42;;;;;;;9.68;4.03;;;;;;;19.67;71.05;101105.88;5102359;28;20410;-65
2023/07/20 07:14:10;;;;;;;13.10;4.10;;;;;;;19.82;71.30;101104.22;5089125;28;20047;-61
2023/07/20 07:16:37;;;;;;;11.80;3.60;;;;;;;19.51;71.99;101102.31;5106820;28;20051;-60
2023/07/20 07:19:07;;;;;;;14.38;4.63;;;;;;;19.42;72.50;101100.91;5083187;28;20044;-61
2023/07/20 07:21:34;;;;;;;10.77;4.72;;;;;;;19.25;72.93;101101.28;5100957;28;20054;-60
2023/07/20 07:24:02;;;;;;;16.30;4.43;;;;;;;19.38;72.71;101100.81;5089355;28;20052;-60
2023/07/20 07:26:29;;;;;;;11.65;4.95;;;;;;;19.66;71.90;101092.28;5087300;28;20651;-58
2023/07/20 07:28:57;;;;;;;16.88;5.18;;;;;;;19.78;71.15;101098.56;5104104;28;20047;-59
2023/07/20 07:31:28;;;;;;;14.95;4.45;;;;;;;20.26;69.64;101090.81;5104082;28;20062;-60
2023/07/20 07:33:57;;;;;;;8.25;3.75;;;;;;;20.37;68.18;101097.41;5106036;28;20047;-59
2023/07/20 07:36:25;;;;;;;10.95;3.47;;;;;;;20.63;66.85;101091.91;5107598;28;20059;-60
2023/07/20 07:38:52;;;;;;;11.10;3.10;;;;;;;20.83;65.00;101097.09;5100539;28;20052;-61
2023/07/20 07:41:22;;;;;;;8.45;2.80;;;;;;;20.99;64.24;101099.78;5097066;28;20044;-60
2023/07/20 07:43:50;;;;;;;10.52;3.10;;;;;;;21.28;63.20;101099.06;5097479;28;20394;-59
2023/07/20 07:46:17;;;;;;;8.65;3.10;;;;;;;21.76;61.41;101092.56;5106395;28;20051;-60
2023/07/20 07:48:44;;;;;;;8.57;3.28;;;;;;;21.63;61.31;101099.63;5107282;28;20043;-59
2023/07/20 07:51:13;;;;;;;12.70;3.78;;;;;;;22.08;60.10;101098.63;5103888;28;20051;-60
2023/07/20 07:53:40;;;;;;;8.95;2.85;;;;;;;22.31;59.34;101090.91;5105250;28;20050;-60
2023/07/20 07:56:08;;;;;;;11.02;3.08;;;;;;;22.65;56.81;101086.91;5096014;28;20416;-60
2023/07/20 07:58:35;;;;;;;8.25;2.72;;;;;;;22.00;58.70;101091.34;5091266;28;20062;-61
2023/07/20 08:01:03;;;;;;;12.20;6.63;;;;;;;22.31;58.73;101093.72;5087666;28;20035;-61
2023/07/20 08:03:30;;;;;;;26.25;3.97;;;;;;;22.73;55.69;101084.97;5099876;28;20048;-60
2023/07/20 08:05:59;;;;;;;14.10;3.50;;;;;;;22.60;55.82;101080.81;5087972;28;20158;-61
2023/07/20 08:08:27;;;;;;;12.30;3.13;;;;;;;22.68;55.65;101074.91;5106976;28;20068;-60
2023/07/20 08:10:55;;;;;;;9.95;2.70;;;;;;;22.54;55.28;101071.97;5108134;28;20055;-62
2023/07/20 08:13:22;;;;;;;10.38;2.95;;;;;;;22.73;54.64;101070.94;5078597;28;20054;-60
2023/07/20 08:15:54;;;;;;;8.85;2.92;;;;;;;22.84;53.51;101075.44;5109610;28;20051;-61
2023/07/20 08:18:21;;;;;;;10.15;2.60;;;;;;;23.30;52.58;101070.22;5080584;28;20035;-60
2023/07/20 08:20:49;;;;;;;8.07;2.42;;;;;;;23.16;52.26;101070.09;5109573;28;20487;-60
2023/07/20 08:23:16;;;;;;;16.83;3.10;;;;;;;23.27;52.35;101071.00;5110710;28;20066;-61
2023/07/20 08:25:44;;;;;;;7.97;2.92;;;;;;;23.17;50.93;101071.72;5112798;28;20078;-65
2023/07/20 08:28:16;;;;;;;5.13;2.03;;;;;;;22.96;52.30;101074.34;5110433;28;20055;-63
2023/07/20 08:30:45;;;;;;;5.93;1.52;;;;;;;21.54;53.47;101073.84;5105574;28;20048;-59
2023/07/20 08:33:14;;;;;;;6.05;1.85;;;;;;;21.96;53.33;101071.66;5110512;28;20455;-59
2023/07/20 08:35:42;;;;;;;6.68;1.63;;;;;;;22.61;50.57;101072.03;5112751;27;20058;-61
2023/07/20 08:38:10;;;;;;;5.50;1.40;;;;;;;22.60;48.23;101058.34;5107410;28;20513;-64
2023/07/20 08:40:42;;;;;;;2.60;1.17;;;;;;;22.54;48.90;101059.88;5055808;28;20063;-59
2023/07/20 08:43:13;;;;;;;7.82;2.13;;;;;;;22.93;48.55;101055.44;5089110;28;20036;-60
2023/07/20 08:45:41;;;;;;;5.43;2.10;;;;;;;23.04;48.69;101045.09;5068650;28;20083;-60
2023/07/20 08:48:09;;;;;;;8.40;1.92;;;;;;;22.69;50.17;101051.22;5092024;28;20074;-60
2023/07/20 08:50:38;;;;;;;7.55;2.00;;;;;;;22.33;49.74;101054.84;5091394;28;20059;-59
2023/07/20 08:53:07;;;;;;;5.93;1.92;;;;;;;22.68;49.89;101054.44;5086170;28;20487;-58
2023/07/20 08:55:35;;;;;;;7.93;1.98;;;;;;;23.00;49.27;101047.06;5087750;28;20056;-59
2023/07/20 08:58:03;;;;;;;6.22;1.90;;;;;;;22.96;49.54;101060.31;5068329;28;21074;-60
2023/07/20 09:00:30;;;;;;;7.07;2.10;;;;;;;23.10;49.12;101052.78;5069120;28;20611;-59
2023/07/20 09:03:00;;;;;;;6.40;1.77;;;;;;;22.66;49.27;101052.00;5069346;28;20044;-58
2023/07/20 09:05:27;;;;;;;5.10;2.10;;;;;;;22.73;48.17;101054.06;5072303;28;20495;-60
2023/07/20 09:07:54;;;;;;;3.65;1.80;;;;;;;22.87;48.45;101052.22;5090455;28;20052;-59
2023/07/20 09:10:23;;;;;;;8.55;2.30;;;;;;;23.10;48.11;101049.97;5084835;28;20055;-60
2023/07/20 09:12:51;;;;;;;6.53;1.92;;;;;;;23.22;46.02;101055.28;5091359;28;20051;-61
2023/07/20 09:15:19;;;;;;;6.05;1.70;;;;;;;23.29;44.27;101055.34;5082162;28;20056;-60
2023/07/20 09:17:48;;;;;;;5.13;1.50;;;;;;;22.65;45.17;101043.97;5089298;28;20513;-61
2023/07/20 09:20:17;;;;;;;6.05;1.25;;;;;;;22.61;44.79;101045.94;5088058;28;20048;-59
2023/07/20 09:22:52;;;;;;;4.45;1.52;;;;;;;22.70;45.53;101046.44;5087144;28;20048;-59
2023/07/20 09:25:20;;;;;;;5.97;1.80;;;;;;;22.98;44.99;101047.47;5086235;28;20054;-60
2023/07/20 09:27:50;;;;;;;3.50;1.48;;;;;;;22.72;45.01;101046.81;5067576;28;20070;-61
2023/07/20 09:30:19;;;;;;;5.32;1.75;;;;;;;23.02;44.02;101047.50;5088070;28;20699;-61
2023/07/20 09:32:48;;;;;;;5.68;1.92;;;;;;;23.42;43.39;101042.59;5084951;28;20656;-59
2023/07/20 09:35:20;;;;;;;4.90;1.60;;;;;;;23.43;43.24;101040.63;5088179;28;20050;-62
2023/07/20 09:38:01;;;;;;;5.72;2.00;;;;;;;23.42;43.40;101036.97;5087010;28;20056;-62
2023/07/20 09:40:38;;;;;;;3.40;1.35;;;;;;;23.54;42.21;101035.06;5108289;27;20040;-59
2023/07/20 09:43:09;;;;;;;6.70;1.48;;;;;;;23.54;42.58;101035.84;5107528;27;20487;-60
2023/07/20 09:45:41;;;;;;;5.05;1.40;;;;;;;23.38;42.57;101035.34;5086759;28;20632;-59
2023/07/20 09:48:15;;;;;;;2.58;1.40;;;;;;;23.23;42.92;101030.78;5107059;28;20407;-61
2023/07/20 09:50:51;;;;;;;3.35;1.35;;;;;;;23.02;42.39;101028.63;5108603;28;20039;-59
2023/07/20 09:53:19;;;;;;;4.93;1.48;;;;;;;23.11;42.07;101022.69;5104366;28;20047;-62
2023/07/20 09:55:48;;;;;;;5.18;1.50;;;;;;;23.01;42.03;101024.19;5105419;28;20051;-61
2023/07/20 09:58:16;;;;;;;3.20;1.20;;;;;;;23.00;41.77;101018.97;5104428;28;20043;-61
2023/07/20 10:00:49;;;;;;;2.83;1.10;;;;;;;22.92;41.98;101026.56;5102829;27;20043;-60
2023/07/20 10:03:22;;;;;;;4.47;1.33;;;;;;;23.38;41.96;101026.91;5105003;28;20063;-60
2023/07/20 10:06:10;;;;;;;3.45;1.55;;;;;;;23.01;41.12;101018.59;5088698;28;20446;-62
2023/07/20 10:08:42;;;;;;;4.15;1.60;;;;;;;23.01;41.89;101024.19;5092880;27;20044;-60
2023/07/20 10:11:15;;;;;;;4.13;1.40;;;;;;;22.94;41.09;101023.34;5093885;28;20486;-60
2023/07/20 10:13:44;;;;;;;6.38;1.52;;;;;;;23.18;41.36;101017.13;5109086;27;20047;-61
2023/07/20 10:16:22;;;;;;;3.90;1.42;;;;;;;22.96;41.66;101009.72;5088661;28;20044;-59
2023/07/20 10:18:55;;;;;;;3.85;1.80;;;;;;;22.95;41.83;101010.91;5092840;28;20047;-60
2023/07/20 10:21:25;;;;;;;6.07;1.50;;;;;;;22.80;40.84;101001.59;5105240;28;20051;-61
2023/07/20 10:23:59;;;;;;;5.60;1.90;;;;;;;23.24;40.77;100996.66;5109363;28;20047;-61
2023/07/20 10:26:26;;;;;;;3.83;1.60;;;;;;;23.41;41.19;100998.03;5106731;28;20071;-61
2023/07/20 10:28:54;;;;;;;3.33;1.55;;;;;;;23.61;40.41;100992.88;5108929;27;20521;-61
2023/07/20 10:31:23;;;;;;;4.18;1.10;;;;;;;23.75;39.59;100993.75;5107107;28;20047;-57
2023/07/20 10:33:52;;;;;;;6.85;1.60;;;;;;;24.12;39.02;100987.88;5109604;27;20054;-60
2023/07/20 10:36:29;;;;;;;6.85;1.67;;;;;;;24.75;38.13;100981.53;5090032;28;20040;-61
2023/07/20 10:38:58;;;;;;;3.88;1.63;;;;;;;24.76;38.20;100971.91;5104811;28;20044;-64
2023/07/20 10:41:32;;;;;;;6.65;1.70;;;;;;;24.87;37.94;100975.50;5068665;28;20047;-58
2023/07/20 10:44:04;;;;;;;5.72;2.10;;;;;;;24.86;38.11;100971.06;5094761;28;20051;-60
2023/07/20 10:46:35;;;;;;;6.22;2.42;;;;;;;24.48;38.84;100975.44;5076082;28;20055;-61
2023/07/20 10:49:04;;;;;;;5.43;1.90;;;;;;;23.62;39.02;100977.63;5109920;28;20411;-69
2023/07/20 10:51:40;;;;;;;4.35;1.90;;;;;;;23.52;38.70;100973.56;5107270;28;20054;-64
2023/07/20 10:54:17;;;;;;;8.10;1.50;;;;;;;23.32;39.81;100975.06;5101287;28;20047;-60
2023/07/20 10:56:50;;;;;;;8.38;4.50;;;;;;;23.45;39.98;100979.13;5107406;28;20306;-61
2023/07/20 10:59:21;;;;;;;23.13;10.30;;;;;;;23.84;39.29;100976.50;5107178;28;20474;-61
2023/07/20 11:01:49;;;;;;;15.32;8.00;;;;;;;23.59;39.69;100967.19;5088711;28;20047;-61
2023/07/20 11:04:20;;;;;;;9.90;6.50;;;;;;;23.97;39.50;100974.94;5099763;28;20497;-61
2023/07/20 11:06:55;;;;;;;6.53;2.88;;;;;;;24.00;39.13;100975.00;5106588;28;20039;-61
2023/07/20 11:09:25;;;;;;;4.15;2.38;;;;;;;24.00;39.07;100975.00;5107310;28;20062;-60
2023/07/20 11:12:09;;;;;;;8.07;3.85;;;;;;;24.26;38.76;100977.47;5105205;28;20047;-60
2023/07/20 11:14:41;;;;;;;5.50;2.38;;;;;;;24.71;37.45;100964.63;5105719;28;20189;-60
2023/07/20 11:17:13;;;;;;;5.57;1.50;;;;;;;24.69;37.16;100969.88;5106932;28;20062;-59
2023/07/20 11:19:41;;;;;;;4.53;2.05;;;;;;;24.75;36.51;100962.63;5066366;28;20461;-60
2023/07/20 11:22:11;;;;;;;5.40;1.65;;;;;;;24.69;37.35;100964.22;5108791;28;20062;-59
2023/07/20 11:24:40;;;;;;;3.45;1.63;;;;;;;24.76;36.91;100967.03;5075675;28;20502;-62
2023/07/20 11:27:07;;;;;;;3.90;1.50;;;;;;;24.76;36.02;100966.25;5108237;28;20044;-60
2023/07/20 11:29:36;;;;;;;4.93;2.38;;;;;;;24.15;37.52;100959.72;5074687;28;20247;-60